createdAt,value
2019-05-30T00:01:41.488Z,2.87
2019-05-30T00:04:09.374Z,2.07
2019-05-30T00:06:37.274Z,2.30
2019-05-30T00:09:07.911Z,2.40
2019-05-30T00:11:35.853Z,3.00
2019-05-30T00:14:04.935Z,2.17
2019-05-30T00:16:33.023Z,2.30
2019-05-30T00:19:00.936Z,2.43
2019-05-30T00:21:28.862Z,1.70
2019-05-30T00:23:57.815Z,2.30
2019-05-30T00:26:25.891Z,2.73
2019-05-30T00:28:53.772Z,2.60
2019-05-30T00:31:21.663Z,2.60
2019-05-30T00:33:49.514Z,2.30
2019-05-30T00:36:17.424Z,2.40
2019-05-30T00:38:45.538Z,2.40
2019-05-30T00:41:13.489Z,2.40
2019-05-30T00:43:41.528Z,2.40
2019-05-30T00:46:09.451Z,2.33
2019-05-30T00:48:37.419Z,2.53
2019-05-30T00:51:06.638Z,3.20
2019-05-30T00:53:34.873Z,2.60
2019-05-30T00:56:03.138Z,2.60
2019-05-30T00:58:31.216Z,3.33
2019-05-30T01:00:59.135Z,3.83
2019-05-30T01:03:27.112Z,3.53
2019-05-30T01:05:54.970Z,3.50
2019-05-30T01:08:22.847Z,2.90
2019-05-30T01:10:50.771Z,3.37
2019-05-30T01:13:18.673Z,3.13
2019-05-30T01:15:46.552Z,2.73
2019-05-30T01:18:14.499Z,3.10
2019-05-30T01:20:42.858Z,3.30
2019-05-30T01:23:10.799Z,3.50
2019-05-30T01:25:38.794Z,3.23
2019-05-30T01:28:07.843Z,2.83
2019-05-30T01:30:35.962Z,2.77
2019-05-30T01:33:03.913Z,2.67
2019-05-30T01:35:31.896Z,2.80
2019-05-30T01:37:59.791Z,2.90
2019-05-30T01:40:27.771Z,3.20
2019-05-30T01:42:55.698Z,3.03
2019-05-30T01:45:23.667Z,3.20
2019-05-30T01:47:51.567Z,3.60
2019-05-30T01:50:19.608Z,2.80
2019-05-30T01:52:47.528Z,3.50
2019-05-30T01:55:15.905Z,3.10
2019-05-30T01:57:43.823Z,3.10
2019-05-30T02:00:20.467Z,3.40
2019-05-30T02:02:41.939Z,2.93
2019-05-30T02:05:09.914Z,2.57
2019-05-30T02:07:37.803Z,3.33
2019-05-30T02:10:05.806Z,3.30
2019-05-30T02:12:33.860Z,3.13
2019-05-30T02:15:01.746Z,3.10
2019-05-30T02:17:29.760Z,3.17
2019-05-30T02:19:57.652Z,3.00
2019-05-30T02:22:25.634Z,3.20
2019-05-30T02:24:53.590Z,3.00
2019-05-30T02:27:21.613Z,3.13
2019-05-30T02:29:49.496Z,2.90
2019-05-30T02:32:17.382Z,2.80
2019-05-30T02:34:45.259Z,3.57
2019-05-30T02:37:13.156Z,3.73
2019-05-30T02:39:41.047Z,3.20
2019-05-30T02:42:09.676Z,3.43
2019-05-30T02:44:38.340Z,3.10
2019-05-30T02:47:07.382Z,3.50
2019-05-30T02:49:35.634Z,3.50
2019-05-30T02:52:04.907Z,3.90
2019-05-30T02:54:33.199Z,3.30
2019-05-30T02:57:01.520Z,3.37
2019-05-30T02:59:29.495Z,3.40
2019-05-30T03:02:01.787Z,3.77
2019-05-30T03:04:27.003Z,3.87
2019-05-30T03:06:54.968Z,3.40
2019-05-30T03:09:23.148Z,3.80
2019-05-30T03:11:51.262Z,3.60
2019-05-30T03:14:20.087Z,3.43
2019-05-30T03:16:48.513Z,3.23
2019-05-30T03:19:16.631Z,2.77
2019-05-30T03:21:44.593Z,2.80
2019-05-30T03:24:14.373Z,3.60
2019-05-30T03:26:42.504Z,3.17
2019-05-30T03:29:12.512Z,3.03
2019-05-30T03:31:40.326Z,2.80
2019-05-30T03:34:16.144Z,2.90
2019-05-30T03:36:37.863Z,3.00
2019-05-30T03:39:07.680Z,3.57
2019-05-30T03:41:36.219Z,2.60
2019-05-30T03:44:05.855Z,3.00
2019-05-30T03:46:35.667Z,3.13
2019-05-30T03:49:04.383Z,2.50
2019-05-30T03:51:34.535Z,2.80
2019-05-30T03:54:04.815Z,2.87
2019-05-30T03:56:38.070Z,2.80
2019-05-30T03:59:10.140Z,2.53
2019-05-30T04:01:42.989Z,2.67
2019-05-30T04:04:14.582Z,2.33
2019-05-30T04:06:45.109Z,2.63
2019-05-30T04:09:19.394Z,2.57
2019-05-30T04:11:46.531Z,3.30
2019-05-30T04:14:18.883Z,3.07
2019-05-30T04:16:46.748Z,3.00
2019-05-30T04:19:15.611Z,2.87
2019-05-30T04:21:44.314Z,2.80
2019-05-30T04:24:14.095Z,2.50
2019-05-30T04:26:41.844Z,3.00
2019-05-30T04:29:09.922Z,3.20
2019-05-30T04:31:37.908Z,3.00
2019-05-30T04:34:05.864Z,3.13
2019-05-30T04:36:33.818Z,3.33
2019-05-30T04:39:01.686Z,2.67
2019-05-30T04:41:29.638Z,2.40
2019-05-30T04:43:57.622Z,2.57
2019-05-30T04:46:25.557Z,2.43
2019-05-30T04:48:53.455Z,2.00
2019-05-30T04:51:21.918Z,3.07
2019-05-30T04:53:50.042Z,2.60
2019-05-30T04:56:19.436Z,2.30
2019-05-30T04:58:47.642Z,2.47
2019-05-30T05:01:16.023Z,1.70
2019-05-30T05:03:46.792Z,2.00
2019-05-30T05:06:15.810Z,1.83
2019-05-30T05:08:43.942Z,2.27
2019-05-30T05:11:14.180Z,2.13
2019-05-30T05:13:41.426Z,2.03
2019-05-30T05:16:24.128Z,1.80
2019-05-30T05:18:38.947Z,1.70
2019-05-30T05:21:06.813Z,2.03
2019-05-30T05:23:34.803Z,1.80
2019-05-30T05:26:02.752Z,1.90
2019-05-30T05:28:30.660Z,1.43
2019-05-30T05:30:58.614Z,1.40
2019-05-30T05:33:26.513Z,1.57
2019-05-30T05:35:54.395Z,1.80
2019-05-30T05:38:22.485Z,1.87
2019-05-30T05:40:50.660Z,2.07
2019-05-30T05:43:18.779Z,2.10
2019-05-30T05:45:46.992Z,1.90
2019-05-30T05:48:14.822Z,2.10
2019-05-30T05:50:42.692Z,1.93
2019-05-30T05:53:10.624Z,2.60
2019-05-30T05:55:38.551Z,2.00
2019-05-30T05:58:06.495Z,2.77
2019-05-30T06:00:34.353Z,2.93
2019-05-30T06:03:02.275Z,2.50
2019-05-30T06:05:30.147Z,3.10
2019-05-30T06:07:58.099Z,3.00
2019-05-30T06:10:26.039Z,3.30
2019-05-30T06:12:53.956Z,3.30
2019-05-30T06:15:22.939Z,3.20
2019-05-30T06:17:50.921Z,2.70
2019-05-30T06:20:19.179Z,3.17
2019-05-30T06:22:47.240Z,3.23
2019-05-30T06:25:15.233Z,3.20
2019-05-30T06:27:43.246Z,3.57
2019-05-30T06:30:11.586Z,2.40
2019-05-30T06:32:39.795Z,3.70
2019-05-30T06:35:07.941Z,2.40
2019-05-30T06:37:35.870Z,2.37
2019-05-30T06:40:03.901Z,3.30
2019-05-30T06:42:31.900Z,1.90
2019-05-30T06:44:59.831Z,2.77
2019-05-30T06:47:28.466Z,2.60
2019-05-30T06:49:56.506Z,2.20
2019-05-30T06:52:24.938Z,2.90
2019-05-30T06:54:53.020Z,1.70
2019-05-30T06:57:21.188Z,2.20
2019-05-30T06:59:49.110Z,2.20
2019-05-30T07:02:16.983Z,2.27
2019-05-30T07:04:51.751Z,2.07
2019-05-30T07:07:14.697Z,2.43
2019-05-30T07:09:42.774Z,2.77
2019-05-30T07:12:12.060Z,2.80
2019-05-30T07:14:40.158Z,2.63
2019-05-30T07:17:08.087Z,1.87
2019-05-30T07:19:37.837Z,2.20
2019-05-30T07:22:05.768Z,4.70
2019-05-30T07:24:33.963Z,3.00
2019-05-30T07:27:02.064Z,2.83
2019-05-30T07:29:30.047Z,2.67
2019-05-30T07:31:58.067Z,2.70
2019-05-30T07:34:26.007Z,2.40
2019-05-30T07:36:53.941Z,2.97
2019-05-30T07:39:21.906Z,2.50
2019-05-30T07:42:05.165Z,2.30
2019-05-30T07:44:19.535Z,2.40
2019-05-30T07:46:47.641Z,2.97
2019-05-30T07:49:15.707Z,2.70
2019-05-30T07:51:43.677Z,4.10
2019-05-30T07:54:11.558Z,3.43
2019-05-30T07:56:39.591Z,3.37
2019-05-30T07:59:07.500Z,2.90
2019-05-30T08:01:35.414Z,3.40
2019-05-30T08:04:03.502Z,3.30
2019-05-30T08:06:31.586Z,3.50
2019-05-30T08:08:59.617Z,3.60
2019-05-30T08:11:28.707Z,3.60
2019-05-30T08:13:56.839Z,2.80
2019-05-30T08:16:24.751Z,3.03
2019-05-30T08:18:52.960Z,4.00
2019-05-30T08:21:20.892Z,3.90
2019-05-30T08:23:48.738Z,3.33
2019-05-30T08:26:18.412Z,3.30
2019-05-30T08:28:46.267Z,2.13
2019-05-30T08:31:14.224Z,2.70
2019-05-30T08:33:42.197Z,3.00
2019-05-30T08:36:10.185Z,2.90
2019-05-30T08:38:39.306Z,3.70
2019-05-30T08:41:07.453Z,3.67
2019-05-30T08:43:35.595Z,3.30
2019-05-30T08:46:03.612Z,3.53
2019-05-30T08:48:32.821Z,3.13
2019-05-30T08:51:01.302Z,3.60
2019-05-30T08:53:30.190Z,2.53
2019-05-30T08:55:58.284Z,2.40
2019-05-30T08:58:26.128Z,3.30
2019-05-30T09:00:54.075Z,2.70
2019-05-30T09:03:22.024Z,2.40
2019-05-30T09:06:02.651Z,2.63
2019-05-30T09:08:19.607Z,3.50
2019-05-30T09:10:47.499Z,3.23
2019-05-30T09:13:15.430Z,2.73
2019-05-30T09:15:43.384Z,2.70
2019-05-30T09:18:11.280Z,2.13
2019-05-30T09:20:39.844Z,2.60
2019-05-30T09:23:08.239Z,2.00
2019-05-30T09:25:37.197Z,2.20
2019-05-30T09:28:05.833Z,2.50
2019-05-30T09:30:33.748Z,2.77
2019-05-30T09:33:01.717Z,2.93
2019-05-30T09:35:29.695Z,2.83
2019-05-30T09:37:57.621Z,2.70
2019-05-30T09:40:25.604Z,2.57
2019-05-30T09:42:53.562Z,2.57
2019-05-30T09:45:22.125Z,3.00
2019-05-30T09:47:51.367Z,1.70
2019-05-30T09:50:19.798Z,1.60
2019-05-30T09:52:49.131Z,1.87
2019-05-30T09:55:17.517Z,2.10
2019-05-30T09:57:45.849Z,2.00
2019-05-30T10:00:15.754Z,2.33
2019-05-30T10:02:44.873Z,1.70
2019-05-30T10:05:13.865Z,1.70
2019-05-30T10:07:43.525Z,1.97
2019-05-30T10:10:11.528Z,1.60
2019-05-30T10:12:39.489Z,2.30
2019-05-30T10:15:07.728Z,2.00
2019-05-30T10:17:35.590Z,2.10
2019-05-30T10:20:03.638Z,2.10
2019-05-30T10:22:31.679Z,2.20
2019-05-30T10:24:59.580Z,2.40
2019-05-30T10:27:27.544Z,1.80
2019-05-30T10:29:55.484Z,1.73
2019-05-30T10:32:23.389Z,2.20
2019-05-30T10:34:51.878Z,1.83
2019-05-30T10:37:20.027Z,2.10
2019-05-30T10:39:49.104Z,2.20
2019-05-30T10:42:17.182Z,1.60
2019-05-30T10:44:46.230Z,1.80
2019-05-30T10:47:14.796Z,2.10
2019-05-30T10:49:42.657Z,1.80
2019-05-30T10:52:10.567Z,2.37
2019-05-30T10:54:38.591Z,1.97
2019-05-30T10:57:06.583Z,1.60
2019-05-30T10:59:34.493Z,2.00
2019-05-30T11:02:02.426Z,2.03
2019-05-30T11:04:30.316Z,1.90
2019-05-30T11:07:11.593Z,2.03
2019-05-30T11:09:39.057Z,1.90
2019-05-30T11:12:06.915Z,2.60
2019-05-30T11:14:34.824Z,2.67
2019-05-30T11:17:02.787Z,2.40
2019-05-30T11:19:30.823Z,2.43
2019-05-30T11:21:59.291Z,2.20
2019-05-30T11:24:27.199Z,2.00
2019-05-30T11:26:55.572Z,2.50
2019-05-30T11:29:24.831Z,2.40
2019-05-30T11:31:52.943Z,3.93
2019-05-30T11:34:20.948Z,3.10
2019-05-30T11:36:48.968Z,1.93
2019-05-30T11:39:17.085Z,2.53
2019-05-30T11:41:44.999Z,2.43
2019-05-30T11:44:13.003Z,2.50
2019-05-30T11:46:40.896Z,2.47
2019-05-30T11:49:08.869Z,2.20
2019-05-30T11:51:36.790Z,3.60
2019-05-30T11:54:04.723Z,3.30
2019-05-30T11:56:32.614Z,1.73
2019-05-30T11:59:00.842Z,3.20
2019-05-30T12:01:28.794Z,2.90
2019-05-30T12:03:56.737Z,1.70
2019-05-30T12:06:24.645Z,2.20
2019-05-30T12:08:52.820Z,2.50
2019-05-30T12:11:20.959Z,3.10
2019-05-30T12:13:51.555Z,2.70
2019-05-30T12:16:19.319Z,2.83
2019-05-30T12:18:47.205Z,2.50
2019-05-30T12:21:15.184Z,2.43
2019-05-30T12:23:43.159Z,2.97
2019-05-30T12:26:11.106Z,2.97
2019-05-30T12:28:38.988Z,3.10
2019-05-30T12:31:06.931Z,2.73
2019-05-30T12:33:35.018Z,3.20
2019-05-30T12:36:02.960Z,2.93
2019-05-30T12:38:30.925Z,3.67
2019-05-30T12:41:00.595Z,3.33
2019-05-30T12:43:28.881Z,3.37
2019-05-30T12:45:56.945Z,3.23
2019-05-30T12:48:24.891Z,3.40
2019-05-30T12:50:53.167Z,4.10
2019-05-30T12:53:21.243Z,3.73
2019-05-30T12:55:49.166Z,3.40
2019-05-30T12:58:17.103Z,3.00
2019-05-30T13:00:45.208Z,2.73
2019-05-30T13:03:13.159Z,3.13
2019-05-30T13:05:41.190Z,3.17
2019-05-30T13:08:20.457Z,2.63
2019-05-30T13:10:38.730Z,3.90
2019-05-30T13:13:06.626Z,3.80
2019-05-30T13:15:34.535Z,2.97
2019-05-30T13:18:03.111Z,2.50
2019-05-30T13:20:31.363Z,2.33
2019-05-30T13:23:00.443Z,2.97
2019-05-30T13:25:28.519Z,2.93
2019-05-30T13:27:57.637Z,3.60
2019-05-30T13:30:25.785Z,2.77
2019-05-30T13:32:53.715Z,2.90
2019-05-30T13:35:21.601Z,2.40
2019-05-30T13:37:49.542Z,2.87
2019-05-30T13:40:24.921Z,2.93
2019-05-30T13:42:47.810Z,2.33
2019-05-30T13:45:15.805Z,2.17
2019-05-30T13:47:43.795Z,2.27
2019-05-30T13:50:13.840Z,2.40
2019-05-30T13:52:41.776Z,2.37
2019-05-30T13:55:10.429Z,2.07
2019-05-30T13:57:38.369Z,2.20
2019-05-30T14:00:06.576Z,2.53
2019-05-30T14:02:34.501Z,2.17
2019-05-30T14:05:02.368Z,2.20
2019-05-30T14:07:30.343Z,2.30
2019-05-30T14:09:58.199Z,1.47
2019-05-30T14:12:26.097Z,1.80
2019-05-30T14:14:53.967Z,1.53
2019-05-30T14:17:21.824Z,2.40
2019-05-30T14:19:49.760Z,1.53
2019-05-30T14:22:17.730Z,1.90
2019-05-30T14:24:45.616Z,1.50
2019-05-30T14:27:13.489Z,1.50
2019-05-30T14:29:41.406Z,1.87
2019-05-30T14:32:09.949Z,1.50
2019-05-30T14:34:38.152Z,1.50
2019-05-30T14:37:06.386Z,1.63
2019-05-30T14:39:34.306Z,2.13
2019-05-30T14:42:03.124Z,1.47
2019-05-30T14:44:31.212Z,2.03
2019-05-30T14:46:59.070Z,1.73
2019-05-30T14:49:27.045Z,1.50
2019-05-30T14:51:54.887Z,1.10
2019-05-30T14:54:22.944Z,1.70
2019-05-30T14:56:50.926Z,1.23
2019-05-30T14:59:18.937Z,1.53
2019-05-30T15:01:46.867Z,1.20
2019-05-30T15:04:14.762Z,1.50
2019-05-30T15:06:42.697Z,1.17
2019-05-30T15:09:17.760Z,1.40
2019-05-30T15:11:40.252Z,1.27
2019-05-30T15:14:08.754Z,1.20
2019-05-30T15:16:36.742Z,1.00
2019-05-30T15:19:04.858Z,1.17
2019-05-30T15:21:34.010Z,1.20
2019-05-30T15:24:01.905Z,1.00
2019-05-30T15:26:29.937Z,1.13
2019-05-30T15:28:57.937Z,1.20
2019-05-30T15:31:25.807Z,1.20
2019-05-30T15:33:53.692Z,1.27
2019-05-30T15:36:21.732Z,1.10
2019-05-30T15:38:49.635Z,1.10
2019-05-30T15:41:17.638Z,0.90
2019-05-30T15:43:45.534Z,1.17
2019-05-30T15:46:13.924Z,1.27
2019-05-30T15:48:41.965Z,1.00
2019-05-30T15:51:10.431Z,1.03
2019-05-30T15:53:38.359Z,1.20
2019-05-30T15:56:06.282Z,1.20
2019-05-30T15:58:34.166Z,1.00
2019-05-30T16:01:02.088Z,1.20
2019-05-30T16:03:30.102Z,1.10
2019-05-30T16:05:58.036Z,1.23
2019-05-30T16:08:25.903Z,1.20
2019-05-30T16:10:53.820Z,1.90
2019-05-30T16:13:21.895Z,1.07
2019-05-30T16:15:49.986Z,1.10
2019-05-30T16:18:17.884Z,1.30
2019-05-30T16:20:45.806Z,1.00
2019-05-30T16:23:14.541Z,1.00
2019-05-30T16:25:42.586Z,1.13
2019-05-30T16:28:10.499Z,1.10
2019-05-30T16:30:38.533Z,1.13
2019-05-30T16:33:06.406Z,1.20
2019-05-30T16:35:34.843Z,1.30
2019-05-30T16:38:02.689Z,1.60
2019-05-30T16:40:30.591Z,1.50
2019-05-30T16:42:58.464Z,1.07
2019-05-30T16:45:26.838Z,1.20
2019-05-30T16:47:54.792Z,1.20
2019-05-30T16:50:23.441Z,1.40
2019-05-30T16:52:51.466Z,1.20
2019-05-30T16:55:19.532Z,1.40
2019-05-30T16:57:47.541Z,1.50
2019-05-30T17:00:17.720Z,1.60
2019-05-30T17:02:45.890Z,0.80
2019-05-30T17:05:13.804Z,1.10
2019-05-30T17:07:41.690Z,1.40
2019-05-30T17:10:22.413Z,1.23
2019-05-30T17:12:39.533Z,1.40
2019-05-30T17:15:07.631Z,1.20
2019-05-30T17:17:35.550Z,1.30
2019-05-30T17:20:03.911Z,1.60
2019-05-30T17:22:31.893Z,1.50
2019-05-30T17:24:59.803Z,1.47
2019-05-30T17:27:27.761Z,1.57
2019-05-30T17:29:55.673Z,1.37
2019-05-30T17:32:23.928Z,1.37
2019-05-30T17:34:51.988Z,1.47
2019-05-30T17:37:20.267Z,1.30
2019-05-30T17:39:48.332Z,1.07
2019-05-30T17:42:16.224Z,1.20
2019-05-30T17:44:44.122Z,1.10
2019-05-30T17:47:12.009Z,1.27
2019-05-30T17:49:39.883Z,1.27
2019-05-30T17:52:07.762Z,1.37
2019-05-30T17:54:35.742Z,1.47
2019-05-30T17:57:03.673Z,1.00
2019-05-30T17:59:31.524Z,1.40
2019-05-30T18:02:00.979Z,1.60
2019-05-30T18:04:29.121Z,1.30
2019-05-30T18:06:57.277Z,1.43
2019-05-30T18:09:25.145Z,1.40
2019-05-30T18:11:53.192Z,1.00
2019-05-30T18:14:21.160Z,1.27
2019-05-30T18:16:49.250Z,0.90
2019-05-30T18:19:17.200Z,1.50
2019-05-30T18:21:45.070Z,1.57
2019-05-30T18:24:12.952Z,1.40
2019-05-30T18:26:40.849Z,1.20
2019-05-30T18:29:08.829Z,1.30
2019-05-30T18:31:36.729Z,1.20
2019-05-30T18:34:04.683Z,1.30
2019-05-30T18:36:32.791Z,1.37
2019-05-30T18:39:00.800Z,1.30
2019-05-30T18:41:28.864Z,1.50
2019-05-30T18:43:56.790Z,1.60
2019-05-30T18:46:24.952Z,1.70
2019-05-30T18:48:53.067Z,1.60
2019-05-30T18:51:20.957Z,1.40
2019-05-30T18:53:48.810Z,1.60
2019-05-30T18:56:16.714Z,1.73
2019-05-30T18:58:44.735Z,1.73
2019-05-30T19:01:12.672Z,1.90
2019-05-30T19:03:40.540Z,1.53
2019-05-30T19:06:08.609Z,1.30
2019-05-30T19:08:36.640Z,1.70
2019-05-30T19:11:07.242Z,1.37
2019-05-30T19:13:35.138Z,1.40
2019-05-30T19:16:03.049Z,1.30
2019-05-30T19:18:31.623Z,1.57
2019-05-30T19:20:59.561Z,2.47
2019-05-30T19:23:28.012Z,2.20
2019-05-30T19:25:56.150Z,1.87
2019-05-30T19:28:24.136Z,1.53
2019-05-30T19:30:52.284Z,1.80
2019-05-30T19:33:20.845Z,1.53
2019-05-30T19:35:49.770Z,1.70
2019-05-30T19:38:17.793Z,1.37
2019-05-30T19:40:45.691Z,1.70
2019-05-30T19:43:13.663Z,2.20
2019-05-30T19:45:41.556Z,1.70
2019-05-30T19:48:09.456Z,2.07
2019-05-30T19:50:37.327Z,2.50
2019-05-30T19:53:05.266Z,2.03
2019-05-30T19:55:35.187Z,2.20
2019-05-30T19:58:03.272Z,1.70
2019-05-30T20:00:31.963Z,2.30
2019-05-30T20:03:00.010Z,2.07
2019-05-30T20:05:28.058Z,2.20
2019-05-30T20:07:55.953Z,2.50
2019-05-30T20:10:23.863Z,2.10
2019-05-30T20:12:51.878Z,2.37
2019-05-30T20:15:19.805Z,2.47
2019-05-30T20:17:47.748Z,2.60
2019-05-30T20:20:15.768Z,2.60
2019-05-30T20:22:43.663Z,2.27
2019-05-30T20:25:11.564Z,2.17
2019-05-30T20:27:40.773Z,2.53
2019-05-30T20:30:09.145Z,2.07
2019-05-30T20:32:37.076Z,2.03
2019-05-30T20:35:05.283Z,2.43
2019-05-30T20:37:34.515Z,2.90
2019-05-30T20:40:04.374Z,2.97
2019-05-30T20:42:32.367Z,2.90
2019-05-30T20:45:00.351Z,2.57
2019-05-30T20:47:28.281Z,2.93
2019-05-30T20:49:56.234Z,3.53
2019-05-30T20:52:24.137Z,3.17
2019-05-30T20:54:52.049Z,2.70
2019-05-30T20:57:20.054Z,2.73
2019-05-30T20:59:48.047Z,3.07
2019-05-30T21:02:15.962Z,2.53
2019-05-30T21:04:43.912Z,3.40
2019-05-30T21:07:11.854Z,3.20
2019-05-30T21:09:40.372Z,3.30
2019-05-30T21:12:08.348Z,3.57
2019-05-30T21:14:37.319Z,3.30
2019-05-30T21:17:05.583Z,2.60
2019-05-30T21:19:33.660Z,3.40
2019-05-30T21:22:01.572Z,3.33
2019-05-30T21:24:29.615Z,2.67
2019-05-30T21:26:57.487Z,3.70
2019-05-30T21:29:25.416Z,3.13
2019-05-30T21:31:53.304Z,3.97
2019-05-30T21:34:21.236Z,3.40
2019-05-30T21:36:49.158Z,3.43
2019-05-30T21:39:17.056Z,2.77
2019-05-30T21:41:44.977Z,3.10
2019-05-30T21:44:12.873Z,3.30
2019-05-30T21:46:40.776Z,2.90
2019-05-30T21:49:08.841Z,2.57
2019-05-30T21:51:36.713Z,2.37
2019-05-30T21:54:04.662Z,3.03
2019-05-30T21:56:32.648Z,2.50
2019-05-30T21:59:00.604Z,1.90
2019-05-30T22:01:30.983Z,2.13
2019-05-30T22:03:58.960Z,1.90
2019-05-30T22:06:26.856Z,2.37
2019-05-30T22:08:54.747Z,2.30
2019-05-30T22:11:22.688Z,2.23
2019-05-30T22:13:51.930Z,2.63
2019-05-30T22:16:20.031Z,2.50
2019-05-30T22:18:48.174Z,2.27
2019-05-30T22:21:16.224Z,2.10
2019-05-30T22:23:44.211Z,2.27
2019-05-30T22:26:12.186Z,2.00
2019-05-30T22:28:40.128Z,2.00
2019-05-30T22:31:08.165Z,2.00
2019-05-30T22:33:36.045Z,2.20
2019-05-30T22:36:03.988Z,2.33
2019-05-30T22:38:31.850Z,2.60
2019-05-30T22:40:59.714Z,2.40
2019-05-30T22:43:27.631Z,2.60
2019-05-30T22:45:56.760Z,2.20
2019-05-30T22:48:24.750Z,2.47
2019-05-30T22:50:52.921Z,2.67
2019-05-30T22:53:20.987Z,2.20
2019-05-30T22:55:49.109Z,2.27
2019-05-30T22:58:17.174Z,2.10
2019-05-30T23:00:45.994Z,2.60
2019-05-30T23:03:14.308Z,2.60
2019-05-30T23:05:42.189Z,2.60
2019-05-30T23:08:10.109Z,2.13
2019-05-30T23:10:38.015Z,2.30
2019-05-30T23:13:05.869Z,2.53
2019-05-30T23:15:33.724Z,2.83
2019-05-30T23:18:01.652Z,2.80
2019-05-30T23:20:29.594Z,2.40
2019-05-30T23:22:57.698Z,2.20
2019-05-30T23:25:25.553Z,2.10
2019-05-30T23:27:53.638Z,2.80
2019-05-30T23:30:21.878Z,2.60
2019-05-30T23:32:50.474Z,2.50
2019-05-30T23:35:18.489Z,2.40
2019-05-30T23:37:46.462Z,2.43
2019-05-30T23:40:14.376Z,2.20
2019-05-30T23:42:42.324Z,2.50
2019-05-30T23:45:10.208Z,2.23
2019-05-30T23:47:38.105Z,2.63
2019-05-30T23:50:06.595Z,2.33
2019-05-30T23:52:34.452Z,2.63
2019-05-30T23:55:02.552Z,2.27
2019-05-30T23:57:30.474Z,2.70
2019-05-30T23:59:58.806Z,2.60
